Time;durP1;ratioP1;P1;durP2;ratioP2;P2;SDS_P1;SDS_P2;PMS_P1;PMS_P2;Temp;Humidity;BMP_temperature;BMP_pressure;BME280_temperature;BME280_humidity;BME280_pressure;Samples;Min_cycle;Max_cycle;Signal;HPM_P1;HPM_P2
2023/11/29 00:01:36;;;;;;;37.03;18.53;;;;;;;-2.29;74.96;99142.09;5107900;27;20261;-62
2023/11/29 00:04:04;;;;;;;38.77;18.73;;;;;;;-2.31;76.49;99136.16;5095066;27;20612;-63
2023/11/29 00:06:33;;;;;;;38.57;19.43;;;;;;;-2.32;75.50;99142.00;5103653;27;20200;-66
2023/11/29 00:09:01;;;;;;;41.40;18.93;;;;;;;-2.34;75.71;99144.50;5101849;27;20297;-64
2023/11/29 00:11:29;;;;;;;36.63;18.23;;;;;;;-2.34;75.81;99146.19;5102684;27;20192;-65
2023/11/29 00:13:59;;;;;;;35.83;17.67;;;;;;;-2.44;76.58;99147.59;5120557;27;20654;-65
2023/11/29 00:16:27;;;;;;;39.60;17.77;;;;;;;-2.40;76.38;99153.56;5117671;27;20937;-64
2023/11/29 00:18:55;;;;;;;39.10;18.17;;;;;;;-2.41;76.54;99162.81;5118089;27;20196;-62
2023/11/29 00:21:23;;;;;;;35.00;17.77;;;;;;;-2.38;75.85;99157.00;5106311;27;20698;-65
2023/11/29 00:23:51;;;;;;;34.30;16.57;;;;;;;-2.38;76.73;99162.06;5119373;27;20200;-64
2023/11/29 00:26:22;;;;;;;35.50;16.50;;;;;;;-2.35;76.11;99155.41;5117583;27;20599;-64
2023/11/29 00:28:50;;;;;;;36.03;17.83;;;;;;;-2.35;76.77;99160.47;5108175;27;20543;-64
2023/11/29 00:31:20;;;;;;;32.17;16.60;;;;;;;-2.33;76.62;99155.44;5119636;27;20228;-66
2023/11/29 00:33:48;;;;;;;33.43;17.27;;;;;;;-2.30;75.34;99170.66;5118371;27;20204;-67
2023/11/29 00:36:16;;;;;;;34.83;16.30;;;;;;;-2.27;76.01;99170.75;5102507;27;20199;-62
2023/11/29 00:38:43;;;;;;;35.23;17.83;;;;;;;-2.25;75.35;99175.00;5117767;27;20700;-64
2023/11/29 00:41:11;;;;;;;34.33;17.87;;;;;;;-2.23;75.53;99172.53;5119343;27;20207;-63
2023/11/29 00:43:40;;;;;;;34.83;17.40;;;;;;;-2.22;75.26;99174.22;5109831;27;20244;-64
2023/11/29 00:46:08;;;;;;;31.00;15.20;;;;;;;-2.25;75.84;99174.13;5108884;28;20572;-65
2023/11/29 00:48:37;;;;;;;30.93;14.70;;;;;;;-2.26;76.97;99167.41;5114314;27;20203;-64
2023/11/29 00:51:06;;;;;;;28.37;14.60;;;;;;;-2.25;76.63;99169.09;5118928;27;21306;-63
2023/11/29 00:53:34;;;;;;;28.23;15.00;;;;;;;-2.24;77.00;99165.78;5116182;27;20200;-64
2023/11/29 00:56:02;;;;;;;24.70;13.67;;;;;;;-2.24;76.01;99178.41;5106288;27;20669;-63
2023/11/29 00:58:30;;;;;;;29.50;14.83;;;;;;;-2.30;76.67;99168.97;5120028;27;20561;-67
2023/11/29 01:00:58;;;;;;;32.23;17.07;;;;;;;-2.29;76.58;99177.41;5108502;27;20222;-64
2023/11/29 01:03:26;;;;;;;30.83;16.10;;;;;;;-2.33;76.63;99185.72;5116606;27;20827;-64
2023/11/29 01:05:55;;;;;;;33.67;17.07;;;;;;;-2.35;76.36;99194.94;5114364;27;20215;-62
2023/11/29 01:08:25;;;;;;;29.70;14.53;;;;;;;-2.35;77.74;99184.84;5110342;27;20257;-64
2023/11/29 01:10:53;;;;;;;32.40;15.77;;;;;;;-2.34;77.64;99187.38;5110492;27;20554;-65
2023/11/29 01:13:22;;;;;;;28.00;15.13;;;;;;;-2.29;76.76;99192.53;5112343;27;20208;-62
2023/11/29 01:15:50;;;;;;;32.13;17.30;;;;;;;-2.27;76.93;99195.97;5121625;27;20238;-63
2023/11/29 01:18:18;;;;;;;31.83;15.30;;;;;;;-2.30;76.18;99195.88;5116366;27;20208;-65
2023/11/29 01:20:47;;;;;;;36.13;17.03;;;;;;;-2.27;77.82;99201.88;5105671;27;20207;-71
2023/11/29 01:23:16;;;;;;;27.67;14.13;;;;;;;-2.23;76.45;99205.31;5109386;27;20212;-64
2023/11/29 01:25:44;;;;;;;30.93;14.90;;;;;;;-2.22;75.97;99212.06;5114399;27;20707;-62
2023/11/29 01:28:12;;;;;;;30.70;15.20;;;;;;;-2.28;77.11;99202.69;5116857;27;20678;-62
2023/11/29 01:30:40;;;;;;;29.93;14.70;;;;;;;-2.30;75.67;99211.03;5116080;27;20215;-64
2023/11/29 01:33:08;;;;;;;30.00;15.30;;;;;;;-2.30;76.70;99211.03;5104162;27;20572;-64
2023/11/29 01:35:36;;;;;;;25.00;13.30;;;;;;;-2.36;77.00;99209.19;5110870;27;20303;-64
2023/11/29 01:38:04;;;;;;;31.10;14.47;;;;;;;-2.37;76.22;99211.69;5121764;27;20662;-63
2023/11/29 01:40:33;;;;;;;22.60;12.87;;;;;;;-2.41;75.84;99210.75;5105033;27;20204;-62
2023/11/29 01:43:01;;;;;;;26.17;12.03;;;;;;;-2.45;77.27;99214.84;5103444;28;20215;-60
2023/11/29 01:45:29;;;;;;;22.10;10.50;;;;;;;-2.46;76.10;99212.28;5117375;27;20228;-65
2023/11/29 01:47:57;;;;;;;20.90;11.27;;;;;;;-2.47;76.74;99216.50;5123216;27;20225;-64
2023/11/29 01:50:29;;;;;;;23.13;11.87;;;;;;;-2.50;76.37;99229.00;5101138;27;20207;-64
2023/11/29 01:52:57;;;;;;;19.67;10.63;;;;;;;-2.51;76.88;99227.28;5115207;27;20196;-64
2023/11/29 01:55:28;;;;;;;23.90;12.47;;;;;;;-2.49;77.54;99218.09;5114415;27;20195;-64
2023/11/29 01:57:58;;;;;;;30.07;14.03;;;;;;;-2.54;76.74;99229.75;5126915;27;20195;-64
2023/11/29 02:00:26;;;;;;;28.20;15.03;;;;;;;-2.57;77.63;99226.28;5100685;27;20647;-67
2023/11/29 02:02:54;;;;;;;29.63;14.03;;;;;;;-2.61;77.35;99221.97;5110858;27;20227;-63
2023/11/29 02:05:22;;;;;;;25.53;13.57;;;;;;;-2.62;78.15;99222.75;5103913;27;20289;-66
2023/11/29 02:07:50;;;;;;;25.30;13.53;;;;;;;-2.55;78.85;99234.72;5117274;27;20207;-64
2023/11/29 02:10:18;;;;;;;27.07;13.83;;;;;;;-2.53;78.40;99223.88;5111637;27;20225;-65
2023/11/29 02:12:46;;;;;;;29.93;14.33;;;;;;;-2.51;78.47;99228.94;5113984;27;20204;-66
2023/11/29 02:15:15;;;;;;;26.67;14.27;;;;;;;-2.48;77.16;99221.47;5113777;27;20232;-63
2023/11/29 02:17:43;;;;;;;32.43;15.37;;;;;;;-2.50;77.72;99218.06;5098715;27;20269;-63
2023/11/29 02:20:14;;;;;;;31.80;15.47;;;;;;;-2.57;77.22;99224.63;5106475;27;20250;-65
2023/11/29 02:22:48;;;;;;;28.27;13.97;;;;;;;-2.59;78.32;99226.22;5111564;28;20762;-68
2023/11/29 02:25:18;;;;;;;31.10;14.43;;;;;;;-2.63;77.30;99216.00;5112371;27;20296;-63
2023/11/29 02:27:46;;;;;;;30.30;15.27;;;;;;;-2.67;77.81;99220.13;5106464;27;20200;-64
2023/11/29 02:30:14;;;;;;;34.67;14.90;;;;;;;-2.67;78.42;99220.97;5119058;28;20279;-63
2023/11/29 02:32:42;;;;;;;28.17;14.20;;;;;;;-2.65;78.73;99218.50;5115577;28;20215;-65
2023/11/29 02:35:10;;;;;;;25.93;13.33;;;;;;;-2.66;78.11;99216.78;5112442;28;20210;-65
2023/11/29 02:37:38;;;;;;;28.50;13.77;;;;;;;-2.64;77.43;99219.34;5115648;28;20199;-65
2023/11/29 02:40:08;;;;;;;29.83;13.77;;;;;;;-2.65;77.70;99223.56;5123944;28;20587;-64
2023/11/29 02:42:37;;;;;;;27.83;14.00;;;;;;;-2.61;77.04;99230.38;5111236;28;20650;-64
2023/11/29 02:45:07;;;;;;;24.90;12.63;;;;;;;-2.64;78.12;99230.28;5116891;28;20659;-65
2023/11/29 02:47:35;;;;;;;31.60;15.00;;;;;;;-2.67;76.56;99232.72;5106032;28;20227;-64
2023/11/29 02:50:03;;;;;;;27.00;13.77;;;;;;;-2.71;76.45;99241.03;5113007;28;20651;-63
2023/11/29 02:52:31;;;;;;;26.93;13.57;;;;;;;-2.73;77.66;99240.09;5109032;28;20681;-66
2023/11/29 02:54:59;;;;;;;26.27;13.33;;;;;;;-2.75;77.27;99239.22;5117639;28;20195;-64
2023/11/29 02:57:27;;;;;;;24.20;13.40;;;;;;;-2.74;77.34;99251.00;5107410;28;20288;-65
2023/11/29 02:59:56;;;;;;;27.47;14.13;;;;;;;-2.75;77.54;99234.19;5105737;28;20722;-63
2023/11/29 03:02:24;;;;;;;25.13;13.67;;;;;;;-2.74;78.26;99248.50;5119031;28;21174;-63
2023/11/29 03:04:53;;;;;;;27.33;14.67;;;;;;;-2.73;77.39;99240.09;5111401;28;20695;-62
2023/11/29 03:07:21;;;;;;;29.73;14.23;;;;;;;-2.71;78.38;99248.59;5121126;28;20637;-62
2023/11/29 03:09:49;;;;;;;27.97;14.43;;;;;;;-2.67;77.31;99233.56;5113661;28;20208;-63
2023/11/29 03:12:17;;;;;;;25.97;13.83;;;;;;;-2.64;77.47;99234.50;5116542;28;20245;-62
2023/11/29 03:14:45;;;;;;;27.03;14.17;;;;;;;-2.67;76.40;99235.25;5103527;28;20242;-63
2023/11/29 03:17:14;;;;;;;27.37;13.13;;;;;;;-2.69;76.99;99240.25;5102450;28;20286;-63
2023/11/29 03:19:42;;;;;;;30.67;14.57;;;;;;;-2.69;78.03;99244.41;5108330;28;20203;-63
2023/11/29 03:22:10;;;;;;;26.03;13.17;;;;;;;-2.67;77.37;99245.34;5113946;28;20569;-64
2023/11/29 03:24:38;;;;;;;26.93;12.73;;;;;;;-2.62;76.81;99248.81;5102507;28;20574;-61
2023/11/29 03:27:07;;;;;;;23.53;12.70;;;;;;;-2.61;77.54;99248.03;5112451;28;20207;-62
2023/11/29 03:29:34;;;;;;;30.47;13.60;;;;;;;-2.63;77.71;99241.22;5117675;28;20197;-63
2023/11/29 03:32:03;;;;;;;32.60;14.23;;;;;;;-2.66;76.42;99254.59;5115570;28;20231;-62
2023/11/29 03:34:32;;;;;;;26.93;12.40;;;;;;;-2.71;77.19;99251.09;5103660;28;20196;-62
2023/11/29 03:37:00;;;;;;;29.17;15.03;;;;;;;-2.77;77.31;99259.34;5102740;28;20245;-64
2023/11/29 03:39:28;;;;;;;30.73;13.33;;;;;;;-2.84;76.79;99256.59;5112673;27;20865;-64
2023/11/29 03:41:56;;;;;;;28.87;14.73;;;;;;;-2.81;76.70;99266.78;5121953;27;20286;-65
2023/11/29 03:44:24;;;;;;;29.17;14.67;;;;;;;-2.84;77.03;99264.16;5117131;27;20208;-61
2023/11/29 03:46:52;;;;;;;29.37;14.70;;;;;;;-2.88;77.26;99262.34;5121501;27;20549;-62
2023/11/29 03:49:20;;;;;;;31.70;15.17;;;;;;;-2.89;76.98;99253.94;5116336;27;20206;-64
2023/11/29 03:51:49;;;;;;;27.77;13.70;;;;;;;-2.83;77.71;99259.19;5113164;27;20212;-63
2023/11/29 03:54:17;;;;;;;32.43;15.13;;;;;;;-2.80;77.21;99259.28;5110319;27;20207;-61
2023/11/29 03:56:45;;;;;;;27.30;13.23;;;;;;;-2.77;77.56;99250.91;5110389;27;20298;-63
2023/11/29 03:59:13;;;;;;;25.27;12.17;;;;;;;-2.79;77.62;99257.59;5108971;27;20279;-61
2023/11/29 04:01:42;;;;;;;26.07;13.60;;;;;;;-2.84;76.93;99254.91;5118204;27;20210;-61
2023/11/29 04:04:10;;;;;;;26.57;12.47;;;;;;;-2.84;76.37;99256.59;5120750;27;20721;-62
2023/11/29 04:06:38;;;;;;;27.80;13.13;;;;;;;-2.87;77.01;99247.28;5118217;27;20200;-63
2023/11/29 04:09:07;;;;;;;26.47;12.37;;;;;;;-2.87;77.45;99247.28;5114329;27;20219;-65
2023/11/29 04:11:35;;;;;;;24.43;13.30;;;;;;;-2.91;76.24;99250.50;5113025;27;20666;-63
2023/11/29 04:14:03;;;;;;;24.07;12.63;;;;;;;-2.88;76.52;99259.84;5110193;27;20203;-64
2023/11/29 04:16:31;;;;;;;26.47;12.10;;;;;;;-2.88;77.62;99259.84;5108992;27;20232;-64
2023/11/29 04:18:59;;;;;;;28.20;12.90;;;;;;;-2.88;77.07;99258.16;5113720;27;20699;-65
2023/11/29 04:21:29;;;;;;;24.17;12.07;;;;;;;-2.87;77.11;99259.91;5108637;27;20199;-67
2023/11/29 04:23:58;;;;;;;24.43;12.47;;;;;;;-2.85;76.70;99259.94;5123808;27;20573;-68
2023/11/29 04:26:29;;;;;;;24.10;12.10;;;;;;;-2.85;77.01;99265.81;5110263;27;20199;-70
2023/11/29 04:28:58;;;;;;;25.83;12.63;;;;;;;-2.87;76.27;99262.41;5107546;27;20241;-67
2023/11/29 04:31:26;;;;;;;30.53;13.90;;;;;;;-2.87;76.63;99262.41;5109528;28;20204;-66
2023/11/29 04:33:54;;;;;;;25.13;12.00;;;;;;;-2.92;76.94;99264.78;5123473;27;20303;-67
2023/11/29 04:36:23;;;;;;;24.17;12.23;;;;;;;-2.93;76.93;99267.28;5121963;27;20315;-67
2023/11/29 04:38:53;;;;;;;26.47;13.23;;;;;;;-2.93;77.96;99275.69;5109840;27;20246;-66
2023/11/29 04:41:21;;;;;;;25.87;12.63;;;;;;;-2.94;77.28;99271.47;5118758;27;20291;-66
2023/11/29 04:43:51;;;;;;;28.57;13.23;;;;;;;-2.96;76.35;99273.06;5115686;27;20250;-67
2023/11/29 04:46:19;;;;;;;27.10;12.60;;;;;;;-2.95;77.08;99278.97;5106395;27;20196;-66
2023/11/29 04:48:47;;;;;;;29.43;13.47;;;;;;;-2.96;77.81;99273.06;5099094;27;20208;-66
2023/11/29 04:51:15;;;;;;;24.03;12.77;;;;;;;-2.95;77.50;99272.25;5103208;27;20205;-68
2023/11/29 04:53:44;;;;;;;33.17;13.40;;;;;;;-2.96;78.28;99257.94;5117196;27;20204;-71
2023/11/29 04:56:12;;;;;;;26.73;13.00;;;;;;;-2.93;78.23;99273.16;5113821;27;20207;-67
2023/11/29 04:58:40;;;;;;;31.10;13.77;;;;;;;-2.92;77.46;99268.97;5117452;27;20204;-66
2023/11/29 05:01:10;;;;;;;27.47;12.67;;;;;;;-2.95;77.36;99264.69;5112275;27;20204;-68
2023/11/29 05:03:39;;;;;;;25.53;12.57;;;;;;;-2.91;78.20;99270.66;5106062;27;20268;-63
2023/11/29 05:06:09;;;;;;;27.00;12.60;;;;;;;-2.88;77.92;99270.78;5114366;27;20649;-66
2023/11/29 05:08:37;;;;;;;27.47;13.63;;;;;;;-2.85;78.23;99270.88;5108524;27;20209;-68
2023/11/29 05:11:08;;;;;;;28.73;13.43;;;;;;;-2.81;76.86;99276.84;5104457;27;20200;-67
2023/11/29 05:13:37;;;;;;;29.93;13.87;;;;;;;-2.80;77.06;99278.56;5119086;27;20618;-67
2023/11/29 05:16:05;;;;;;;30.07;13.60;;;;;;;-2.78;77.33;99276.94;5101076;27;20315;-66
2023/11/29 05:18:35;;;;;;;29.40;13.47;;;;;;;-2.77;77.53;99276.13;5104079;27;20252;-64
2023/11/29 05:21:03;;;;;;;32.70;14.57;;;;;;;-2.78;76.33;99280.31;5106916;27;20207;-63
2023/11/29 05:23:31;;;;;;;31.63;14.20;;;;;;;-2.76;76.88;99276.19;5108770;28;20614;-63
2023/11/29 05:25:59;;;;;;;33.30;13.77;;;;;;;-2.73;77.54;99285.47;5113656;27;20212;-63
2023/11/29 05:28:33;;;;;;;34.73;14.97;;;;;;;-2.72;77.57;99280.50;5115819;27;20200;-63
2023/11/29 05:31:01;;;;;;;32.33;14.83;;;;;;;-2.72;77.48;99297.31;5111018;27;20209;-64
2023/11/29 05:33:31;;;;;;;28.63;13.17;;;;;;;-2.71;77.15;99292.28;5105687;27;20254;-63
2023/11/29 05:36:00;;;;;;;31.40;13.43;;;;;;;-2.71;77.72;99288.91;5110065;27;20200;-62
2023/11/29 05:38:28;;;;;;;28.63;14.00;;;;;;;-2.75;77.85;99285.47;5109131;28;20248;-64
2023/11/29 05:40:57;;;;;;;29.03;12.10;;;;;;;-2.77;77.59;99292.09;5109472;27;20295;-63
2023/11/29 05:43:25;;;;;;;30.23;13.23;;;;;;;-2.77;77.44;99293.78;5118299;27;20192;-62
2023/11/29 05:45:54;;;;;;;33.33;13.80;;;;;;;-2.77;77.93;99292.09;5112725;27;20234;-65
2023/11/29 05:48:23;;;;;;;27.60;13.23;;;;;;;-2.76;77.11;99290.44;5117375;27;20195;-63
2023/11/29 05:50:51;;;;;;;29.87;13.67;;;;;;;-2.77;78.06;99303.84;5110430;27;20200;-65
2023/11/29 05:53:23;;;;;;;29.60;13.23;;;;;;;-2.76;77.90;99303.91;5110784;27;20204;-64
2023/11/29 05:55:51;;;;;;;29.13;13.33;;;;;;;-2.77;77.38;99299.66;5109335;27;20607;-65
2023/11/29 05:58:19;;;;;;;24.67;12.33;;;;;;;-2.73;77.10;99314.06;5099103;27;20203;-64
2023/11/29 06:00:47;;;;;;;26.73;13.03;;;;;;;-2.78;78.26;99312.25;5111455;28;20895;-64
2023/11/29 06:03:17;;;;;;;27.20;13.87;;;;;;;-2.80;77.18;99314.72;5107062;27;20637;-62
2023/11/29 06:05:45;;;;;;;28.83;12.80;;;;;;;-2.80;78.02;99314.72;5107115;27;20219;-66
2023/11/29 06:08:13;;;;;;;27.03;12.50;;;;;;;-2.75;78.07;99319.91;5111782;27;20199;-68
2023/11/29 06:10:44;;;;;;;26.63;12.63;;;;;;;-2.73;77.82;99323.31;5114680;27;20211;-67
2023/11/29 06:13:12;;;;;;;24.10;11.70;;;;;;;-2.73;77.92;99326.69;5113986;27;20245;-68
2023/11/29 06:15:42;;;;;;;23.83;11.20;;;;;;;-2.74;77.33;99329.16;5108210;27;20253;-65
2023/11/29 06:18:10;;;;;;;26.37;12.13;;;;;;;-2.72;78.40;99337.66;5108424;27;20211;-67
2023/11/29 06:20:39;;;;;;;24.97;12.60;;;;;;;-2.72;78.48;99347.72;5112713;27;20210;-68
2023/11/29 06:23:07;;;;;;;26.53;11.87;;;;;;;-2.73;77.88;99340.94;5117781;27;20216;-64
2023/11/29 06:25:35;;;;;;;26.00;13.40;;;;;;;-2.75;77.83;99340.06;5118526;27;20228;-68
2023/11/29 06:28:05;;;;;;;24.83;11.40;;;;;;;-2.79;76.96;99340.78;5107967;28;20628;-66
2023/11/29 06:30:34;;;;;;;23.13;11.10;;;;;;;-2.77;78.56;99336.63;5121828;27;20203;-65
2023/11/29 06:33:02;;;;;;;20.47;11.33;;;;;;;-2.77;78.50;99339.16;5111845;28;20204;-66
2023/11/29 06:35:30;;;;;;;20.77;10.43;;;;;;;-2.78;78.04;99345.88;5120697;28;21207;-65
2023/11/29 06:37:59;;;;;;;21.77;10.70;;;;;;;-2.84;78.06;99337.25;5108123;28;20282;-69
2023/11/29 06:40:35;;;;;;;21.43;10.33;;;;;;;-2.87;78.30;99345.59;5119548;28;20200;-64
2023/11/29 06:43:12;;;;;;;19.17;10.60;;;;;;;-2.94;77.26;99337.00;5110155;27;20255;-64
2023/11/29 06:45:40;;;;;;;21.17;10.33;;;;;;;-2.98;77.16;99337.72;5101681;28;20718;-65
2023/11/29 06:48:08;;;;;;;20.00;10.13;;;;;;;-3.08;78.56;99335.69;5114491;28;20282;-65
2023/11/29 06:50:36;;;;;;;17.73;9.23;;;;;;;-3.10;78.29;99329.75;5115503;28;20191;-65
2023/11/29 06:53:04;;;;;;;20.77;10.70;;;;;;;-3.04;78.34;99339.16;5103491;28;20196;-67
2023/11/29 06:55:33;;;;;;;19.60;10.43;;;;;;;-2.99;78.18;99343.53;5101037;28;20200;-66
2023/11/29 06:58:01;;;;;;;23.60;11.73;;;;;;;-3.00;78.21;99339.31;5119182;28;20199;-69
2023/11/29 07:00:43;;;;;;;19.23;10.97;;;;;;;-3.00;78.35;99348.53;5111296;28;20686;-66
2023/11/29 07:03:12;;;;;;;21.97;9.13;;;;;;;-3.04;78.63;99359.34;5113969;28;20192;-64
2023/11/29 07:05:41;;;;;;;19.17;9.70;;;;;;;-3.03;78.16;99368.59;5116346;27;20682;-62
2023/11/29 07:08:09;;;;;;;20.40;9.93;;;;;;;-3.03;78.11;99366.94;5109934;28;20571;-66
2023/11/29 07:10:36;;;;;;;26.43;12.13;;;;;;;-3.06;78.91;99371.88;5116450;28;20668;-66
2023/11/29 07:13:06;;;;;;;22.57;11.13;;;;;;;-3.10;78.07;99385.19;5115777;27;20288;-66
2023/11/29 07:15:34;;;;;;;23.10;11.70;;;;;;;-3.09;79.42;99391.94;5117839;27;20238;-63
2023/11/29 07:18:03;;;;;;;26.97;13.63;;;;;;;-3.06;78.91;99391.16;5118096;27;20207;-62
2023/11/29 07:20:31;;;;;;;29.47;13.17;;;;;;;-3.10;79.60;99395.25;5109641;27;20195;-63
2023/11/29 07:23:12;;;;;;;24.80;12.07;;;;;;;-3.11;79.32;99393.56;5113391;27;20201;-66
2023/11/29 07:25:40;;;;;;;26.50;12.90;;;;;;;-3.13;79.89;99395.16;5125228;27;20374;-63
2023/11/29 07:28:08;;;;;;;25.43;13.73;;;;;;;-3.08;80.20;99397.84;5109159;27;20660;-62
2023/11/29 07:30:37;;;;;;;29.27;14.00;;;;;;;-3.04;79.63;99397.13;5116622;27;20204;-63
2023/11/29 07:33:07;;;;;;;28.93;13.67;;;;;;;-2.97;79.68;99409.13;5109397;27;22261;-69
2023/11/29 07:35:35;;;;;;;25.40;13.40;;;;;;;-2.99;79.43;99406.53;5102084;27;20237;-64
2023/11/29 07:38:03;;;;;;;32.47;15.20;;;;;;;-2.93;79.12;99409.25;5108568;27;20204;-64
2023/11/29 07:40:31;;;;;;;28.43;13.07;;;;;;;-2.88;80.46;99404.34;5107304;27;20244;-73
2023/11/29 07:43:00;;;;;;;24.63;12.53;;;;;;;-2.86;79.79;99412.00;5133690;27;20249;-72
2023/11/29 07:45:28;;;;;;;27.93;13.40;;;;;;;-2.82;78.82;99421.34;5101828;27;20218;-72
2023/11/29 07:47:56;;;;;;;25.43;12.73;;;;;;;-2.81;78.47;99418.88;5117561;27;20211;-69
2023/11/29 07:50:26;;;;;;;32.90;14.27;;;;;;;-2.76;78.47;99421.53;5112117;27;20594;-65
2023/11/29 07:52:54;;;;;;;29.77;13.10;;;;;;;-2.78;78.20;99408.88;5101733;27;20216;-74
2023/11/29 07:55:22;;;;;;;27.63;13.07;;;;;;;-2.82;78.67;99416.31;5100625;27;20670;-72
2023/11/29 07:57:50;;;;;;;27.40;13.00;;;;;;;-2.85;79.09;99406.97;5102345;27;20226;-71
2023/11/29 08:00:19;;;;;;;33.67;16.30;;;;;;;-2.83;78.94;99417.13;5099918;27;20204;-69
2023/11/29 08:02:47;;;;;;;30.77;14.73;;;;;;;-2.86;79.87;99410.31;5103937;27;20215;-69
2023/11/29 08:05:15;;;;;;;27.63;13.93;;;;;;;-2.81;79.17;99401.22;5108646;27;20214;-69
2023/11/29 08:07:45;;;;;;;32.30;14.50;;;;;;;-2.82;78.96;99402.03;5108010;27;20261;-69
2023/11/29 08:10:13;;;;;;;18.63;10.67;;;;;;;-2.75;78.92;99411.50;5119920;27;20703;-69
2023/11/29 08:12:41;;;;;;;26.63;12.10;;;;;;;-2.73;78.66;99417.44;5115278;27;20207;-68
2023/11/29 08:15:09;;;;;;;26.33;12.10;;;;;;;-2.77;77.33;99419.81;5117538;27;20235;-70
2023/11/29 08:17:40;;;;;;;25.27;12.77;;;;;;;-2.75;78.80;99423.25;5111785;27;20207;-71
2023/11/29 08:20:09;;;;;;;24.63;12.53;;;;;;;-2.76;78.48;99432.50;5121416;27;20205;-67
2023/11/29 08:22:37;;;;;;;27.17;13.07;;;;;;;-2.73;78.25;99427.53;5114457;27;20249;-67
2023/11/29 08:25:08;;;;;;;29.40;13.10;;;;;;;-2.71;77.76;99430.13;5123203;27;20204;-67
2023/11/29 08:27:36;;;;;;;27.27;14.47;;;;;;;-2.69;78.32;99436.03;5113701;27;20640;-70
2023/11/29 08:30:04;;;;;;;32.67;15.50;;;;;;;-2.67;78.78;99436.97;5112313;27;20211;-66
2023/11/29 08:32:33;;;;;;;31.63;15.17;;;;;;;-2.64;77.81;99432.03;5112838;28;20871;-68
2023/11/29 08:35:04;;;;;;;27.03;14.23;;;;;;;-2.58;78.32;99431.34;5109103;27;22177;-73
2023/11/29 08:37:32;;;;;;;27.43;14.63;;;;;;;-2.60;77.77;99427.94;5111654;27;20233;-67
2023/11/29 08:40:01;;;;;;;32.93;15.40;;;;;;;-2.51;78.85;99426.53;5107617;27;20568;-66
2023/11/29 08:42:31;;;;;;;32.37;15.83;;;;;;;-2.47;78.37;99425.84;5106162;27;20210;-69
2023/11/29 08:45:01;;;;;;;26.83;15.57;;;;;;;-2.40;77.27;99433.56;5113324;28;20200;-67
2023/11/29 08:47:29;;;;;;;30.30;15.60;;;;;;;-2.39;77.70;99422.66;5113533;27;20212;-69
2023/11/29 08:49:58;;;;;;;31.17;16.10;;;;;;;-2.31;77.82;99427.16;5120691;27;20196;-69
2023/11/29 08:52:25;;;;;;;35.33;16.10;;;;;;;-2.25;77.34;99426.44;5109495;27;20275;-69
2023/11/29 08:54:54;;;;;;;31.73;16.27;;;;;;;-2.22;76.77;99431.59;5110443;28;20562;-68
2023/11/29 08:57:23;;;;;;;31.07;16.20;;;;;;;-2.24;76.68;99421.47;5121499;27;20250;-69
2023/11/29 08:59:53;;;;;;;30.00;14.97;;;;;;;-2.22;76.43;99417.31;5122110;27;20207;-71
2023/11/29 09:02:22;;;;;;;32.60;16.13;;;;;;;-2.16;77.06;99421.69;5112545;27;20238;-68
2023/11/29 09:04:51;;;;;;;32.03;15.70;;;;;;;-2.15;76.14;99425.91;5113744;27;20591;-64
2023/11/29 09:07:19;;;;;;;32.53;16.07;;;;;;;-2.23;77.02;99417.28;5156753;27;20223;-70
2023/11/29 09:09:48;;;;;;;35.20;16.23;;;;;;;-2.16;77.65;99426.75;5114524;27;20561;-70
2023/11/29 09:12:16;;;;;;;30.40;15.40;;;;;;;-2.15;76.01;99433.50;5110315;27;20204;-65
2023/11/29 09:14:45;;;;;;;32.73;15.43;;;;;;;-2.29;76.80;99434.75;5116767;27;20603;-64
2023/11/29 09:17:17;;;;;;;30.90;16.10;;;;;;;-2.27;76.69;99439.03;5106303;27;20553;-66
2023/11/29 09:19:46;;;;;;;32.90;15.80;;;;;;;-2.31;76.24;99426.28;5116067;27;20211;-66
2023/11/29 09:22:14;;;;;;;35.90;15.13;;;;;;;-2.23;75.93;99424.84;5113182;27;20203;-63
2023/11/29 09:24:42;;;;;;;25.03;13.30;;;;;;;-2.21;75.42;99423.19;5100718;27;20200;-62
2023/11/29 09:27:11;;;;;;;32.70;17.03;;;;;;;-2.14;76.06;99420.06;5100222;27;20266;-66
2023/11/29 09:29:39;;;;;;;31.20;14.20;;;;;;;-2.14;74.58;99414.16;5115387;27;20252;-64
2023/11/29 09:32:07;;;;;;;28.87;14.03;;;;;;;-2.20;75.08;99407.28;5116060;27;20546;-64
2023/11/29 09:34:37;;;;;;;27.07;13.47;;;;;;;-2.26;75.02;99414.66;5112241;27;20658;-69
2023/11/29 09:37:07;;;;;;;28.73;14.43;;;;;;;-2.30;74.60;99408.66;5121719;27;20211;-64
2023/11/29 09:39:35;;;;;;;28.20;13.87;;;;;;;-2.30;75.32;99406.13;5130586;27;20558;-64
2023/11/29 09:42:05;;;;;;;29.47;14.37;;;;;;;-2.22;74.55;99411.41;5117695;27;20661;-65
2023/11/29 09:44:35;;;;;;;28.63;14.60;;;;;;;-2.20;75.45;99409.81;5100480;27;20325;-63
2023/11/29 09:47:05;;;;;;;29.87;14.10;;;;;;;-2.14;75.79;99402.38;5112225;27;20215;-67
2023/11/29 09:49:33;;;;;;;27.50;14.37;;;;;;;-2.13;75.09;99411.69;5113567;27;20738;-67
2023/11/29 09:52:03;;;;;;;29.03;13.93;;;;;;;-2.07;74.58;99405.94;5110296;27;20685;-64
2023/11/29 09:54:31;;;;;;;32.97;14.40;;;;;;;-2.02;75.23;99415.38;5103235;27;20681;-68
2023/11/29 09:56:59;;;;;;;32.03;15.30;;;;;;;-1.91;75.50;99418.22;5112627;27;20196;-62
2023/11/29 09:59:28;;;;;;;29.77;14.73;;;;;;;-1.83;75.55;99410.84;5103325;27;20203;-65
2023/11/29 10:01:57;;;;;;;33.50;14.00;;;;;;;-1.75;74.62;99422.84;5100479;27;20414;-69
2023/11/29 10:04:25;;;;;;;29.70;13.93;;;;;;;-1.73;73.88;99413.66;5115809;27;20631;-66
2023/11/29 10:06:53;;;;;;;26.57;13.33;;;;;;;-1.83;73.59;99410.84;5102554;27;20212;-68
2023/11/29 10:09:22;;;;;;;25.00;11.97;;;;;;;-1.85;73.24;99409.94;5111755;27;20195;-67
2023/11/29 10:11:50;;;;;;;30.57;13.13;;;;;;;-1.84;72.97;99427.66;5115543;27;20285;-68
2023/11/29 10:14:20;;;;;;;27.80;12.57;;;;;;;-1.89;74.28;99423.28;5109036;27;20192;-67
2023/11/29 10:16:53;;;;;;;24.20;12.47;;;;;;;-1.85;73.40;99415.84;5102326;28;20611;-69
2023/11/29 10:19:22;;;;;;;28.80;12.77;;;;;;;-1.81;74.43;99415.09;5105860;27;20612;-65
2023/11/29 10:21:51;;;;;;;21.97;11.17;;;;;;;-1.69;74.15;99422.19;5110755;27;20682;-65
2023/11/29 10:24:25;;;;;;;24.70;11.20;;;;;;;-1.58;73.03;99422.47;5107861;28;20242;-68
2023/11/29 10:26:54;;;;;;;25.93;12.50;;;;;;;-1.60;72.83;99414.00;5111584;27;20212;-68
2023/11/29 10:29:22;;;;;;;24.73;12.70;;;;;;;-1.57;72.04;99416.59;5110910;28;20570;-63
2023/11/29 10:31:55;;;;;;;23.70;11.80;;;;;;;-1.54;73.03;99425.13;5109098;27;20197;-69
2023/11/29 10:34:23;;;;;;;25.57;12.40;;;;;;;-1.54;72.77;99415.00;5103471;28;20751;-70
2023/11/29 10:36:52;;;;;;;23.73;10.67;;;;;;;-1.58;71.85;99412.38;5115830;28;20322;-66
2023/11/29 10:39:23;;;;;;;23.20;11.50;;;;;;;-1.61;71.03;99423.25;5111881;28;20250;-66
2023/11/29 10:41:55;;;;;;;21.30;10.70;;;;;;;-1.56;70.92;99431.78;5110136;28;20202;-67
2023/11/29 10:44:30;;;;;;;28.37;11.57;;;;;;;-1.46;71.33;99423.66;5110778;28;20193;-69
2023/11/29 10:47:03;;;;;;;22.90;12.23;;;;;;;-1.44;70.97;99418.63;5111204;27;20303;-66
2023/11/29 10:49:36;;;;;;;24.37;11.17;;;;;;;-1.41;69.90;99418.69;5102866;27;20662;-67
2023/11/29 10:52:05;;;;;;;21.43;10.93;;;;;;;-1.33;69.37;99421.44;5126122;27;20722;-67
2023/11/29 10:54:34;;;;;;;21.87;11.27;;;;;;;-1.34;70.84;99430.69;5117976;27;20260;-68
2023/11/29 10:57:10;;;;;;;27.17;11.23;;;;;;;-1.29;69.66;99423.22;5110198;27;20199;-64
2023/11/29 10:59:41;;;;;;;20.30;10.50;;;;;;;-1.26;69.69;99435.94;5111639;27;20204;-67
2023/11/29 11:02:09;;;;;;;25.50;11.77;;;;;;;-1.23;70.27;99429.28;5157383;27;20268;-66
2023/11/29 11:04:44;;;;;;;20.73;10.13;;;;;;;-1.17;69.17;99425.22;5155208;27;20718;-66
2023/11/29 11:07:40;;;;;;;23.20;11.40;;;;;;;-1.14;69.18;99428.69;5124884;27;20642;-70
2023/11/29 11:10:10;;;;;;;20.70;10.60;;;;;;;-1.11;68.90;99428.72;5119166;27;20202;-65
2023/11/29 11:12:40;;;;;;;21.27;11.30;;;;;;;-1.05;69.50;99426.38;5126071;27;20207;-66
2023/11/29 11:15:13;;;;;;;19.83;9.60;;;;;;;-0.95;68.58;99429.13;5127005;27;20358;-67
2023/11/29 11:17:43;;;;;;;16.87;8.80;;;;;;;-0.94;67.79;99424.09;5117392;27;20196;-67
2023/11/29 11:20:12;;;;;;;16.67;8.80;;;;;;;-0.90;68.14;99425.88;5119599;27;20206;-70
2023/11/29 11:22:42;;;;;;;17.73;8.40;;;;;;;-0.86;67.75;99427.66;5113847;28;20242;-71
2023/11/29 11:25:12;;;;;;;15.53;8.53;;;;;;;-0.84;67.29;99430.25;5114965;28;20208;-69